UAE29V OMDB-EDDF
Flight info
| Callsign | UAE29V |
|---|---|
| Flight time | N/A |
| Altitude | 34000 |
| Route | SENPA2F SENPA N571 ALPOB L768 ULADA Q143 MEDGO N697 HIL/N0494F360 A788 HLF L604 WEJ L677 CVO L617 NOZ L551 ANTAR DCT AKINA DCT RIGRO DCT PEREN/N0481F380 UL863 EVIVI DCT OKANA DCT TONDO DCT ARSIN DCT BUDEX DCT IPDUL DCT RAPET T170 VAGAB/N0464F240 T170 GAPLA T178 KERAX KERAX5A |
| Aircraft | B77W/H-SDE1E2E3FGHIJ2J3J4J5M1RWXY/LB1D1 |
Departure
| Time | 2026-05-04 15:48 |
|---|---|
| Airport | Dubai International Airport (OMDB) |
Arrival
| Time | N/A |
|---|---|
| Airport | Frankfurt Main Airport (EDDF) |
| Time | Latitude | Longitude | Altitude | Speed | Heading |
|---|---|---|---|---|---|
| 2026-05-04 14:33 | 25.24804 | 55.36439 | 29 ft | 0 kts | 211° |
| 2026-05-04 15:32 | 25.24844 | 55.36466 | 32 ft | 4 kts | 211° |
| 2026-05-04 15:32 | 25.24884 | 55.36496 | 32 ft | 4 kts | 259° |
| 2026-05-04 15:33 | 25.24862 | 55.36533 | 32 ft | 0 kts | 302° |
| 2026-05-04 15:35 | 25.24865 | 55.36528 | 32 ft | 2 kts | 302° |
| 2026-05-04 15:35 | 25.24876 | 55.36510 | 32 ft | 4 kts | 302° |
| 2026-05-04 15:36 | 25.24917 | 55.36435 | 29 ft | 8 kts | 302° |
| 2026-05-04 15:36 | 25.24949 | 55.36379 | 29 ft | 9 kts | 302° |
| 2026-05-04 15:36 | 25.24988 | 55.36310 | 30 ft | 12 kts | 302° |
| 2026-05-04 15:37 | 25.25034 | 55.36227 | 29 ft | 14 kts | 301° |
| 2026-05-04 15:37 | 25.25088 | 55.36131 | 31 ft | 16 kts | 302° |
| 2026-05-04 15:37 | 25.25147 | 55.36027 | 31 ft | 16 kts | 302° |
| 2026-05-04 15:37 | 25.25209 | 55.35918 | 29 ft | 18 kts | 302° |
| 2026-05-04 15:38 | 25.25278 | 55.35795 | 29 ft | 19 kts | 302° |
| 2026-05-04 15:38 | 25.25343 | 55.35679 | 29 ft | 16 kts | 302° |
| 2026-05-04 15:38 | 25.25401 | 55.35576 | 27 ft | 16 kts | 302° |
| 2026-05-04 15:38 | 25.25459 | 55.35473 | 29 ft | 16 kts | 301° |
| 2026-05-04 15:39 | 25.25515 | 55.35372 | 30 ft | 16 kts | 302° |
| 2026-05-04 15:39 | 25.25573 | 55.35270 | 30 ft | 16 kts | 302° |
| 2026-05-04 15:39 | 25.25699 | 55.35167 | 30 ft | 12 kts | 30° |
| 2026-05-04 15:40 | 25.25771 | 55.35215 | 29 ft | 12 kts | 31° |
| 2026-05-04 15:40 | 25.25843 | 55.35262 | 29 ft | 12 kts | 31° |
| 2026-05-04 15:40 | 25.25914 | 55.35310 | 29 ft | 12 kts | 31° |
| 2026-05-04 15:40 | 25.25981 | 55.35365 | 26 ft | 12 kts | 50° |
| 2026-05-04 15:41 | 25.26010 | 55.35451 | 26 ft | 12 kts | 83° |
| 2026-05-04 15:41 | 25.25997 | 55.35541 | 26 ft | 12 kts | 113° |
| 2026-05-04 15:41 | 25.25953 | 55.35620 | 26 ft | 12 kts | 122° |
| 2026-05-04 15:41 | 25.25909 | 55.35698 | 26 ft | 12 kts | 122° |
| 2026-05-04 15:42 | 25.25865 | 55.35777 | 26 ft | 12 kts | 122° |
| 2026-05-04 15:42 | 25.25821 | 55.35855 | 27 ft | 12 kts | 122° |
| 2026-05-04 15:42 | 25.25775 | 55.35937 | 27 ft | 14 kts | 122° |
| 2026-05-04 15:42 | 25.25714 | 55.36045 | 27 ft | 19 kts | 122° |
| 2026-05-04 15:43 | 25.25639 | 55.36178 | 27 ft | 21 kts | 122° |
| 2026-05-04 15:43 | 25.25563 | 55.36313 | 27 ft | 21 kts | 121° |
| 2026-05-04 15:43 | 25.25487 | 55.36448 | 27 ft | 21 kts | 122° |
| 2026-05-04 15:43 | 25.25414 | 55.36578 | 27 ft | 21 kts | 122° |
| 2026-05-04 15:44 | 25.25337 | 55.36715 | 26 ft | 21 kts | 122° |
| 2026-05-04 15:44 | 25.25261 | 55.36850 | 27 ft | 21 kts | 122° |
| 2026-05-04 15:44 | 25.25186 | 55.36984 | 27 ft | 18 kts | 122° |
| 2026-05-04 15:44 | 25.25118 | 55.37104 | 28 ft | 18 kts | 122° |
| 2026-05-04 15:45 | 25.25051 | 55.37224 | 28 ft | 18 kts | 122° |
| 2026-05-04 15:45 | 25.24983 | 55.37345 | 28 ft | 18 kts | 122° |
| 2026-05-04 15:45 | 25.24916 | 55.37465 | 28 ft | 18 kts | 122° |
| 2026-05-04 15:45 | 25.24848 | 55.37585 | 28 ft | 19 kts | 122° |
| 2026-05-04 15:46 | 25.24776 | 55.37711 | 28 ft | 20 kts | 122° |
| 2026-05-04 15:46 | 25.24703 | 55.37840 | 27 ft | 19 kts | 122° |
| 2026-05-04 15:46 | 25.24669 | 55.37937 | 27 ft | 12 kts | 78° |
| 2026-05-04 15:46 | 25.24717 | 55.37990 | 28 ft | 9 kts | 32° |
| 2026-05-04 15:47 | 25.24773 | 55.38022 | 30 ft | 9 kts | 13° |
| 2026-05-04 15:47 | 25.24826 | 55.37992 | 30 ft | 9 kts | 307° |
| 2026-05-04 15:47 | 25.24859 | 55.37929 | 30 ft | 12 kts | 300° |
| 2026-05-04 15:47 | 25.24938 | 55.37787 | 30 ft | 45 kts | 301° |
| 2026-05-04 15:48 | 25.25230 | 55.37262 | 32 ft | 113 kts | 301° |
| 2026-05-04 15:48 | 25.25748 | 55.36330 | 32 ft | 169 kts | 302° |
| 2026-05-04 15:48 | 25.27119 | 55.33886 | 802 ft | 188 kts | 301° |
| 2026-05-04 15:49 | 25.27810 | 55.32635 | 1370 ft | 192 kts | 301° |
| 2026-05-04 15:49 | 25.28511 | 55.31353 | 1862 ft | 200 kts | 297° |
| 2026-05-04 15:49 | 25.28831 | 55.29816 | 2027 ft | 220 kts | 273° |
| 2026-05-04 15:49 | 25.28887 | 55.28020 | 2293 ft | 241 kts | 275° |
| 2026-05-04 15:50 | 25.28972 | 55.26136 | 2688 ft | 255 kts | 275° |
| 2026-05-04 15:50 | 25.29071 | 55.24131 | 3205 ft | 265 kts | 275° |
| 2026-05-04 15:50 | 25.29180 | 55.22068 | 3782 ft | 272 kts | 275° |
| 2026-05-04 15:50 | 25.29296 | 55.19978 | 4423 ft | 276 kts | 276° |
| 2026-05-04 15:51 | 25.29420 | 55.17850 | 5095 ft | 279 kts | 276° |
| 2026-05-04 15:51 | 25.29505 | 55.16400 | 5569 ft | 280 kts | 276° |
| 2026-05-04 15:51 | 25.29634 | 55.14250 | 6268 ft | 282 kts | 276° |
| 2026-05-04 15:51 | 25.29766 | 55.12083 | 6916 ft | 283 kts | 277° |
| 2026-05-04 15:52 | 25.29900 | 55.09905 | 7580 ft | 285 kts | 277° |
| 2026-05-04 15:52 | 25.30035 | 55.07713 | 8231 ft | 287 kts | 277° |
| 2026-05-04 15:52 | 25.30172 | 55.05503 | 8904 ft | 289 kts | 277° |
| 2026-05-04 15:52 | 25.30308 | 55.03285 | 9573 ft | 291 kts | 277° |
| 2026-05-04 15:53 | 25.30447 | 55.01048 | 10165 ft | 293 kts | 276° |
| 2026-05-04 15:53 | 25.30590 | 54.98751 | 10506 ft | 309 kts | 276° |
| 2026-05-04 15:53 | 25.30743 | 54.96302 | 10655 ft | 332 kts | 276° |
| 2026-05-04 15:53 | 25.30907 | 54.93667 | 10816 ft | 353 kts | 276° |
| 2026-05-04 15:54 | 25.31079 | 54.90880 | 11037 ft | 372 kts | 276° |
| 2026-05-04 15:54 | 25.31254 | 54.87990 | 11531 ft | 382 kts | 276° |
| 2026-05-04 15:54 | 25.31432 | 54.85036 | 12192 ft | 387 kts | 276° |
| 2026-05-04 15:54 | 25.31610 | 54.82059 | 12941 ft | 391 kts | 275° |
| 2026-05-04 15:55 | 25.31790 | 54.79043 | 13670 ft | 395 kts | 275° |
| 2026-05-04 15:55 | 25.31972 | 54.76015 | 14323 ft | 397 kts | 275° |
| 2026-05-04 15:55 | 25.32154 | 54.72960 | 14765 ft | 400 kts | 275° |
| 2026-05-04 15:55 | 25.32338 | 54.69883 | 14748 ft | 402 kts | 275° |
| 2026-05-04 15:56 | 25.32521 | 54.66805 | 14754 ft | 400 kts | 275° |
| 2026-05-04 15:56 | 25.32702 | 54.63742 | 14754 ft | 399 kts | 275° |
| 2026-05-04 15:56 | 25.32884 | 54.60673 | 14875 ft | 402 kts | 275° |
| 2026-05-04 15:56 | 25.33067 | 54.57580 | 15537 ft | 404 kts | 275° |
| 2026-05-04 15:57 | 25.33312 | 54.54506 | 16331 ft | 403 kts | 278° |
| 2026-05-04 15:57 | 25.33832 | 54.51464 | 17061 ft | 404 kts | 285° |
| 2026-05-04 15:57 | 25.34634 | 54.48479 | 17735 ft | 407 kts | 287° |
| 2026-05-04 15:57 | 25.35475 | 54.45472 | 18326 ft | 411 kts | 287° |
| 2026-05-04 15:58 | 25.36314 | 54.42441 | 18908 ft | 414 kts | 287° |
| 2026-05-04 15:58 | 25.37151 | 54.39383 | 19492 ft | 417 kts | 286° |
| 2026-05-04 15:58 | 25.37978 | 54.36335 | 20058 ft | 420 kts | 286° |
| 2026-05-04 15:58 | 25.38830 | 54.33184 | 20649 ft | 424 kts | 286° |
| 2026-05-04 15:59 | 25.39674 | 54.30056 | 21218 ft | 427 kts | 286° |
| 2026-05-04 15:59 | 25.40509 | 54.26934 | 21759 ft | 430 kts | 285° |
| 2026-05-04 15:59 | 25.41323 | 54.23694 | 22330 ft | 434 kts | 284° |
| 2026-05-04 15:59 | 25.42112 | 54.20454 | 22854 ft | 437 kts | 284° |
| 2026-05-04 16:00 | 25.42904 | 54.17194 | 23367 ft | 441 kts | 284° |
| 2026-05-04 16:00 | 25.43708 | 54.13914 | 23834 ft | 443 kts | 284° |
| 2026-05-04 16:00 | 25.44519 | 54.10627 | 24354 ft | 443 kts | 284° |
| 2026-05-04 16:00 | 25.45309 | 54.07414 | 24842 ft | 444 kts | 284° |
| 2026-05-04 16:01 | 25.46114 | 54.04114 | 25307 ft | 446 kts | 284° |
| 2026-05-04 16:01 | 25.46922 | 54.00793 | 25731 ft | 448 kts | 284° |
| 2026-05-04 16:01 | 25.47733 | 53.97454 | 26165 ft | 450 kts | 284° |
| 2026-05-04 16:01 | 25.48547 | 53.94100 | 26593 ft | 452 kts | 284° |
| 2026-05-04 16:02 | 25.49364 | 53.90734 | 27039 ft | 453 kts | 284° |
| 2026-05-04 16:02 | 25.50182 | 53.87364 | 27466 ft | 455 kts | 283° |
| 2026-05-04 16:02 | 25.51828 | 53.80567 | 28256 ft | 459 kts | 283° |